Whiteface, Minnesota
Current Conditions -  °F | °C
As of 1:11 PM on Thursday 30 Oct 2014 (Local Time) from KEVM Reporting Station
Overcast Overcast  
Wind Chill: 30°   Ceiling: 1300
Heat Index: 37°   Visibility: 10mi
Dew Point: 32°   Wind: 10mph
Humidity: 81%   Direction: 320°NW
Pressure: 30.1"   Gusts: NA
Location:  47.2457°N, 92.4531°W
Report Text: KEVM 301811Z AUTO 32009KT 10SM BKN013 OVC020 03/00 A3010 RMK AO2
Loading
Personal Weather Stations






























Interactive Weather Map
Tropical Storm Tracking
New forecast layout! Learn more

10-Day Weather Forecast

Advertisements
Track Severe Weather on mobile